Time;durP1;ratioP1;P1;durP2;ratioP2;P2;SDS_P1;SDS_P2;PMS_P1;PMS_P2;Temp;Humidity;BMP_temperature;BMP_pressure;BME280_temperature;BME280_humidity;BME280_pressure;Samples;Min_cycle;Max_cycle;Signal;HPM_P1;HPM_P2
2023/01/13 00:02:00;;;;;;;4.20;0.77;;;;;;;10.09;100.00;99902.38;5053568;28;21066;-70
2023/01/13 00:04:27;;;;;;;4.10;0.60;;;;;;;10.14;100.00;99900.59;5053444;28;20442;-70
2023/01/13 00:06:53;;;;;;;4.30;0.60;;;;;;;10.09;100.00;99904.25;5053686;28;20524;-70
2023/01/13 00:09:20;;;;;;;3.90;0.47;;;;;;;10.14;100.00;99895.19;5053840;28;20477;-68
2023/01/13 00:11:47;;;;;;;4.00;0.50;;;;;;;10.17;100.00;99900.00;5053621;28;20462;-67
2023/01/13 00:14:13;;;;;;;5.30;0.80;;;;;;;10.17;100.00;99910.81;5053776;28;20443;-68
2023/01/13 00:16:41;;;;;;;5.33;0.73;;;;;;;10.15;100.00;99916.56;5053838;28;20440;-67
2023/01/13 00:19:08;;;;;;;4.70;0.60;;;;;;;10.15;100.00;99908.44;5053298;28;20874;-67
2023/01/13 00:21:35;;;;;;;5.90;0.70;;;;;;;10.21;100.00;99917.19;5053249;28;20493;-67
2023/01/13 00:24:01;;;;;;;5.70;1.17;;;;;;;10.18;100.00;99913.22;5053609;28;20873;-67
2023/01/13 00:26:32;;;;;;;4.03;0.50;;;;;;;10.22;100.00;99916.06;5053385;28;20452;-68
2023/01/13 00:28:59;;;;;;;4.27;0.67;;;;;;;10.18;100.00;99910.53;5053451;28;20435;-68
2023/01/13 00:31:28;;;;;;;3.80;0.40;;;;;;;10.24;100.00;99901.16;5053015;28;20480;-69
2023/01/13 00:33:58;;;;;;;4.00;0.40;;;;;;;10.18;100.00;99907.81;5053374;28;20874;-70
2023/01/13 00:36:24;;;;;;;4.30;0.60;;;;;;;10.18;100.00;99898.88;5053366;28;20529;-70
2023/01/13 00:38:51;;;;;;;4.00;0.60;;;;;;;10.11;100.00;99902.84;5053104;28;20945;-70
2023/01/13 00:41:19;;;;;;;4.77;0.50;;;;;;;10.15;100.00;99903.03;5053237;28;20470;-69
2023/01/13 00:43:45;;;;;;;4.13;0.70;;;;;;;10.13;100.00;99889.00;5053308;28;20470;-72
2023/01/13 00:46:13;;;;;;;4.20;0.70;;;;;;;10.23;100.00;99904.16;5052892;28;20500;-70
2023/01/13 00:48:40;;;;;;;4.10;0.60;;;;;;;10.22;100.00;99897.13;5053202;28;20494;-69
2023/01/13 00:51:12;;;;;;;4.73;0.60;;;;;;;10.22;100.00;99889.00;5053593;28;20454;-70
2023/01/13 00:53:41;;;;;;;4.00;0.50;;;;;;;10.19;100.00;99886.97;5052920;28;20429;-70
2023/01/13 00:56:17;;;;;;;3.97;0.60;;;;;;;10.23;100.00;99888.72;5053084;28;20468;-70
2023/01/13 00:58:45;;;;;;;5.90;0.60;;;;;;;10.17;100.00;99889.97;5053084;28;20418;-70
2023/01/13 01:01:14;;;;;;;4.43;0.70;;;;;;;10.18;100.00;99891.56;5052944;28;20509;-71
2023/01/13 01:03:40;;;;;;;3.90;0.50;;;;;;;10.18;100.00;99896.16;5053009;28;20529;-70
2023/01/13 01:06:12;;;;;;;4.60;0.63;;;;;;;10.16;100.00;99901.09;5053022;28;20460;-71
2023/01/13 01:08:38;;;;;;;3.80;0.50;;;;;;;10.22;100.00;99897.13;5052910;28;20561;-69
2023/01/13 01:11:07;;;;;;;4.30;0.77;;;;;;;10.27;100.00;99897.84;5052545;28;20476;-71
2023/01/13 01:13:34;;;;;;;4.17;0.53;;;;;;;10.30;100.00;99899.09;5052925;28;20449;-68
2023/01/13 01:16:05;;;;;;;3.97;0.50;;;;;;;10.31;100.00;99901.50;5052598;28;21022;-70
2023/01/13 01:18:32;;;;;;;6.33;0.87;;;;;;;10.30;100.00;99905.31;5056742;28;20431;-71
2023/01/13 01:20:59;;;;;;;4.00;0.50;;;;;;;10.35;100.00;99894.31;5056433;28;20470;-68
2023/01/13 01:23:29;;;;;;;6.97;0.70;;;;;;;10.37;100.00;99888.59;5057005;28;20851;-70
2023/01/13 01:26:01;;;;;;;3.90;0.50;;;;;;;10.40;100.00;99889.88;5056866;28;20489;-71
2023/01/13 01:28:27;;;;;;;3.83;0.50;;;;;;;10.35;100.00;99890.81;5056795;28;20564;-70
2023/01/13 01:30:54;;;;;;;3.77;0.47;;;;;;;10.37;100.00;99894.03;5056396;28;20476;-69
2023/01/13 01:33:21;;;;;;;3.80;0.50;;;;;;;10.31;100.00;99895.28;5056723;28;20442;-69
2023/01/13 01:35:47;;;;;;;3.80;0.40;;;;;;;10.34;100.00;99895.44;5056497;28;20445;-70
2023/01/13 01:38:14;;;;;;;12.43;0.97;;;;;;;10.29;100.00;99886.69;5056661;28;20470;-68
2023/01/13 01:40:42;;;;;;;4.17;0.63;;;;;;;10.31;100.00;99890.69;5056562;28;20464;-70
2023/01/13 01:45:58;;;;;;;4.93;0.40;;;;;;;10.43;100.00;99881.13;5056347;28;20462;-70
2023/01/13 01:48:26;;;;;;;4.20;0.50;;;;;;;10.43;100.00;99886.53;5056443;28;20640;-70
2023/01/13 01:50:53;;;;;;;3.80;0.43;;;;;;;10.44;100.00;99890.81;5056574;28;20552;-70
2023/01/13 01:53:23;;;;;;;3.90;0.50;;;;;;;10.40;100.00;99890.66;5056173;28;20935;-67
2023/01/13 01:55:51;;;;;;;4.53;0.73;;;;;;;10.38;100.00;99889.41;5056657;28;20446;-71
2023/01/13 01:58:22;;;;;;;3.83;0.50;;;;;;;10.40;100.00;99887.16;5055871;28;20470;-70
2023/01/13 02:00:48;;;;;;;3.80;0.43;;;;;;;10.42;100.00;99882.25;5056218;28;20887;-70
2023/01/13 02:03:17;;;;;;;4.13;0.67;;;;;;;10.43;100.00;99881.91;5056161;28;20525;-70
2023/01/13 02:05:44;;;;;;;3.80;0.50;;;;;;;10.43;100.00;99884.63;5055823;28;20537;-70
2023/01/13 02:08:13;;;;;;;4.30;0.60;;;;;;;10.39;100.00;99883.66;5056006;28;20482;-70
2023/01/13 02:10:42;;;;;;;3.90;0.50;;;;;;;10.40;100.00;99876.34;5056005;28;20549;-69
2023/01/13 02:13:13;;;;;;;3.83;0.50;;;;;;;10.41;100.00;99883.38;5055950;28;20492;-70
2023/01/13 02:15:47;;;;;;;4.00;0.50;;;;;;;10.38;100.00;99873.16;5055685;28;20506;-70
2023/01/13 02:18:37;;;;;;;4.27;0.67;;;;;;;10.44;100.00;99869.16;5055906;28;20454;-70
2023/01/13 02:21:26;;;;;;;4.10;0.50;;;;;;;10.43;100.00;99873.78;5055484;28;20481;-70
2023/01/13 02:27:42;;;;;;;3.80;0.50;;;;;;;10.34;100.00;99873.78;5055342;28;20476;-68
2023/01/13 02:33:30;;;;;;;3.80;0.50;;;;;;;10.34;100.00;99862.94;5013532;28;20432;-68
2023/01/13 02:36:01;;;;;;;4.70;0.60;;;;;;;10.31;100.00;99860.06;5013599;28;20463;-68
2023/01/13 02:38:33;;;;;;;3.87;0.50;;;;;;;10.33;100.00;99866.00;5036649;28;20506;-68
2023/01/13 02:44:05;;;;;;;3.70;0.50;;;;;;;10.42;100.00;99857.88;5055525;28;20458;-69
2023/01/13 02:44:05;;;;;;;3.90;0.50;;;;;;;10.38;100.00;99863.13;5055270;28;20422;-67
2023/01/13 02:46:38;;;;;;;3.80;0.50;;;;;;;10.37;100.00;99861.53;5055259;28;20434;-68
2023/01/13 02:49:08;;;;;;;3.80;0.50;;;;;;;10.40;100.00;99851.97;5055036;28;20509;-67
2023/01/13 02:51:36;;;;;;;4.53;0.70;;;;;;;10.45;100.00;99851.84;5055298;28;20533;-67
2023/01/13 02:54:08;;;;;;;3.70;0.50;;;;;;;10.40;100.00;99854.69;5055210;28;20455;-69
2023/01/13 02:56:39;;;;;;;4.67;0.60;;;;;;;10.41;100.00;99850.88;5055508;28;20422;-67
2023/01/13 02:59:06;;;;;;;3.80;0.50;;;;;;;10.39;100.00;99853.09;5055096;28;20813;-68
2023/01/13 03:01:34;;;;;;;5.83;0.70;;;;;;;10.43;100.00;99845.94;5055197;28;20498;-67
2023/01/13 03:04:11;;;;;;;3.80;0.50;;;;;;;10.38;100.00;99840.66;5055116;28;20442;-68
2023/01/13 03:06:48;;;;;;;3.70;0.43;;;;;;;10.33;100.00;99823.47;5055138;28;20429;-68
2023/01/13 03:09:19;;;;;;;3.63;0.40;;;;;;;10.34;100.00;99835.88;5054875;28;20561;-67
2023/01/13 03:11:56;;;;;;;3.90;0.60;;;;;;;10.34;100.00;99829.69;5054937;28;20516;-67
2023/01/13 03:14:30;;;;;;;4.00;0.50;;;;;;;10.34;100.00;99833.19;5054791;28;20422;-67
2023/01/13 03:17:12;;;;;;;4.53;0.57;;;;;;;10.28;100.00;99829.03;5054845;28;20517;-69
2023/01/13 03:19:44;;;;;;;3.70;0.40;;;;;;;10.30;100.00;99828.72;5054918;28;20422;-67
2023/01/13 03:22:22;;;;;;;4.00;0.50;;;;;;;10.33;100.00;99838.91;5054298;28;20516;-67
2023/01/13 03:24:53;;;;;;;3.90;0.57;;;;;;;10.39;100.00;99828.72;5054402;28;20825;-67
2023/01/13 03:27:25;;;;;;;3.67;0.40;;;;;;;10.39;99.96;99843.06;5054624;28;20427;-67
2023/01/13 03:29:58;;;;;;;3.67;0.40;;;;;;;10.45;99.39;99836.38;5054690;28;20484;-66
2023/01/13 03:32:30;;;;;;;7.30;0.70;;;;;;;10.44;99.69;99839.38;5054126;28;20544;-68
2023/01/13 03:35:02;;;;;;;3.67;0.40;;;;;;;10.40;100.00;99835.72;5054448;28;20426;-69
2023/01/13 03:37:33;;;;;;;3.77;0.40;;;;;;;10.41;100.00;99824.59;5054547;28;20422;-69
2023/01/13 03:40:06;;;;;;;3.70;0.50;;;;;;;10.45;99.84;99822.06;5053282;28;20998;-69
2023/01/13 03:42:36;;;;;;;4.40;0.67;;;;;;;10.50;99.81;99827.31;5054088;28;20973;-69
2023/01/13 03:45:08;;;;;;;4.30;0.60;;;;;;;10.46;99.13;99827.13;5054282;28;20855;-70
2023/01/13 03:47:41;;;;;;;3.60;0.40;;;;;;;10.47;99.25;99825.22;5053930;28;20442;-69
2023/01/13 03:50:13;;;;;;;3.70;0.40;;;;;;;10.49;98.48;99828.41;5054248;28;20433;-70
2023/01/13 03:52:45;;;;;;;4.30;0.60;;;;;;;10.52;98.41;99831.25;5054216;28;20426;-69
2023/01/13 03:55:14;;;;;;;3.90;0.50;;;;;;;10.47;99.04;99833.34;5054157;28;20422;-68
2023/01/13 03:57:46;;;;;;;3.90;0.50;;;;;;;10.51;98.85;99828.88;5053673;28;20944;-68
2023/01/13 04:00:15;;;;;;;4.03;0.60;;;;;;;10.51;98.32;99820.75;5053787;28;20437;-69
2023/01/13 04:02:52;;;;;;;4.20;0.60;;;;;;;10.49;98.64;99815.69;5053996;28;20466;-69
2023/01/13 04:05:20;;;;;;;4.00;0.60;;;;;;;10.52;97.83;99820.44;5053655;28;20513;-69
2023/01/13 04:07:52;;;;;;;3.77;0.43;;;;;;;10.60;97.92;99825.06;5053474;28;21015;-69
2023/01/13 04:10:26;;;;;;;3.60;0.40;;;;;;;10.53;97.84;99822.03;5053726;28;20429;-69
2023/01/13 04:13:05;;;;;;;3.60;0.40;;;;;;;10.56;97.90;99824.09;5053963;28;20427;-68
2023/01/13 04:15:36;;;;;;;3.70;0.40;;;;;;;10.51;97.74;99823.47;5053974;28;20522;-68
2023/01/13 04:18:11;;;;;;;3.60;0.40;;;;;;;10.50;98.30;99825.38;5053744;28;20533;-69
2023/01/13 04:20:39;;;;;;;3.90;0.53;;;;;;;10.42;98.67;99819.97;5053399;28;20474;-68
2023/01/13 04:23:06;;;;;;;3.80;0.50;;;;;;;10.40;98.72;99827.59;5053707;28;20800;-68
2023/01/13 04:25:33;;;;;;;4.10;0.50;;;;;;;10.34;98.89;99822.34;5053679;28;20482;-68
2023/01/13 04:28:00;;;;;;;4.53;0.60;;;;;;;10.28;99.74;99823.63;5053567;28;20494;-68
2023/01/13 04:30:26;;;;;;;3.70;0.50;;;;;;;10.34;98.94;99837.78;5053458;28;20466;-68
2023/01/13 04:32:53;;;;;;;3.67;0.40;;;;;;;10.29;99.17;99827.13;5053353;28;20442;-67
2023/01/13 04:35:21;;;;;;;3.60;0.50;;;;;;;10.26;98.93;99825.84;5053001;28;20552;-69
2023/01/13 04:37:47;;;;;;;3.67;0.40;;;;;;;10.19;100.00;99825.50;5053289;28;20643;-68
2023/01/13 04:40:14;;;;;;;4.00;0.60;;;;;;;10.18;99.89;99829.34;5052875;28;20438;-68
2023/01/13 04:42:41;;;;;;;3.70;0.40;;;;;;;10.17;100.00;99816.88;5053381;28;20481;-67
2023/01/13 04:45:09;;;;;;;3.90;0.50;;;;;;;10.17;99.86;99825.00;5053303;28;20517;-68
2023/01/13 04:47:36;;;;;;;3.80;0.43;;;;;;;10.15;100.00;99827.25;5053507;28;20454;-68
2023/01/13 04:50:03;;;;;;;3.80;0.50;;;;;;;10.20;100.00;99842.53;5052859;28;20572;-68
2023/01/13 04:52:31;;;;;;;4.50;0.57;;;;;;;10.23;100.00;99833.78;5051747;28;20957;-70
2023/01/13 04:54:57;;;;;;;3.70;0.43;;;;;;;10.27;99.82;99837.47;5053033;28;20481;-71
2023/01/13 04:57:24;;;;;;;3.77;0.50;;;;;;;10.26;99.53;99844.78;5053139;28;20478;-69
2023/01/13 04:59:51;;;;;;;3.70;0.40;;;;;;;10.30;99.88;99850.38;5053018;28;20886;-69
2023/01/13 05:02:19;;;;;;;3.70;0.53;;;;;;;10.32;99.59;99859.00;5053190;28;20525;-70
2023/01/13 05:04:46;;;;;;;7.10;1.00;;;;;;;10.34;99.42;99857.53;5053130;28;20450;-69
2023/01/13 05:07:13;;;;;;;5.10;0.70;;;;;;;10.40;99.12;99860.88;5053073;28;20458;-69
2023/01/13 05:09:41;;;;;;;3.80;0.50;;;;;;;10.44;99.44;99863.75;5052975;28;20490;-68
2023/01/13 05:17:37;;;;;;;3.87;0.57;;;;;;;10.47;100.00;99895.63;5052833;28;20406;-69
2023/01/13 05:20:05;;;;;;;3.90;0.53;;;;;;;10.38;100.00;99906.44;5052592;28;20544;-70
2023/01/13 05:25:23;;;;;;;4.00;0.70;;;;;;;9.91;100.00;99889.09;5013175;28;20510;-77
2023/01/13 05:27:52;;;;;;;3.87;0.50;;;;;;;9.79;100.00;99884.28;5013771;28;20495;-78
2023/01/13 05:30:20;;;;;;;3.60;0.40;;;;;;;9.72;100.00;99903.66;5013265;28;21076;-77
2023/01/13 05:32:46;;;;;;;4.10;0.50;;;;;;;9.69;100.00;99906.97;5049538;22;20557;-79
2023/01/13 05:35:14;;;;;;;3.70;0.60;;;;;;;9.68;100.00;99915.41;5058291;28;20981;-79
2023/01/13 05:37:41;;;;;;;4.60;0.60;;;;;;;9.53;100.00;99892.28;5055475;28;20522;-79
2023/01/13 05:43:20;;;;;;;4.30;0.67;;;;;;;9.25;100.00;99889.78;5055857;28;20479;-80
2023/01/13 05:45:49;;;;;;;3.90;0.60;;;;;;;9.19;100.00;99893.69;5054825;28;20442;-81
2023/01/13 05:48:17;;;;;;;8.67;1.23;;;;;;;9.21;100.00;99901.47;5057754;28;20430;-81
2023/01/13 05:50:44;;;;;;;6.40;0.80;;;;;;;9.20;100.00;99897.19;5056132;28;20521;-78
2023/01/13 05:53:11;;;;;;;6.47;0.70;;;;;;;9.20;100.00;99905.28;5054540;28;20541;-78
2023/01/13 05:55:39;;;;;;;4.43;0.60;;;;;;;9.15;100.00;99910.81;5053572;28;20529;-78
2023/01/13 05:58:08;;;;;;;4.47;0.70;;;;;;;9.18;100.00;99918.31;5053605;28;20508;-77
2023/01/13 06:00:34;;;;;;;6.77;1.10;;;;;;;9.16;100.00;99907.81;5053254;28;20434;-77
2023/01/13 06:03:01;;;;;;;8.63;0.50;;;;;;;9.18;100.00;99908.31;5054017;28;20502;-77
2023/01/13 06:05:29;;;;;;;4.07;0.70;;;;;;;9.14;100.00;99885.72;5059791;28;20437;-80
2023/01/13 06:07:57;;;;;;;4.00;0.60;;;;;;;9.16;100.00;99894.31;5061028;28;20978;-79
2023/01/13 06:10:23;;;;;;;3.90;0.60;;;;;;;9.20;100.00;99887.16;5057153;28;20477;-76
2023/01/13 06:12:50;;;;;;;4.27;0.70;;;;;;;9.21;100.00;99886.09;5056347;28;20470;-77
2023/01/13 06:15:19;;;;;;;5.90;0.90;;;;;;;9.27;100.00;99906.47;5056385;28;20469;-77
2023/01/13 06:17:45;;;;;;;4.40;0.90;;;;;;;9.26;100.00;99899.47;5056540;28;20474;-77
2023/01/13 06:20:13;;;;;;;4.50;0.80;;;;;;;9.25;100.00;99883.53;5056246;28;20442;-77
2023/01/13 06:22:42;;;;;;;6.90;0.80;;;;;;;9.27;100.00;99874.03;5058613;28;20494;-79
2023/01/13 06:25:16;;;;;;;5.13;0.60;;;;;;;9.29;100.00;99893.44;5062647;28;20512;-79
2023/01/13 06:27:42;;;;;;;4.00;0.63;;;;;;;9.34;100.00;99878.97;5060111;28;20458;-77
2023/01/13 06:30:11;;;;;;;4.20;0.60;;;;;;;9.31;100.00;99885.81;5055873;28;20986;-77
2023/01/13 06:32:44;;;;;;;6.67;1.07;;;;;;;9.34;100.00;99911.41;5057658;28;20474;-78
2023/01/13 06:35:15;;;;;;;4.17;0.67;;;;;;;9.33;100.00;99905.22;5056923;28;20518;-77
2023/01/13 06:37:44;;;;;;;5.60;0.77;;;;;;;9.33;100.00;99907.13;5055655;28;20481;-77
2023/01/13 06:40:13;;;;;;;4.10;0.63;;;;;;;9.34;100.00;99895.19;5056197;28;20442;-77
2023/01/13 06:45:27;;;;;;;4.83;0.73;;;;;;;9.28;100.00;99870.22;5056108;28;20414;-77
2023/01/13 06:47:57;;;;;;;4.40;0.80;;;;;;;9.21;100.00;99859.06;5056040;28;20460;-76
2023/01/13 06:50:23;;;;;;;4.60;1.20;;;;;;;9.15;100.00;99864.91;5056427;28;20576;-76
2023/01/13 06:52:50;;;;;;;4.87;1.17;;;;;;;9.13;100.00;99876.03;5056012;28;20549;-77
2023/01/13 06:55:17;;;;;;;4.43;0.80;;;;;;;9.08;100.00;99879.66;5055865;28;21031;-76
2023/01/13 06:57:51;;;;;;;4.10;0.70;;;;;;;9.09;100.00;99877.75;5055706;28;20548;-77
2023/01/13 07:00:19;;;;;;;4.30;0.70;;;;;;;9.14;100.00;99869.50;5055744;28;20529;-76
2023/01/13 07:02:45;;;;;;;4.00;0.70;;;;;;;9.19;100.00;99882.88;5055516;28;20571;-76
2023/01/13 07:05:14;;;;;;;4.30;0.70;;;;;;;9.27;100.00;99889.44;5055235;28;20504;-76
2023/01/13 07:07:41;;;;;;;4.53;0.77;;;;;;;9.28;100.00;99875.63;5055287;28;20799;-77
2023/01/13 07:10:11;;;;;;;5.27;0.83;;;;;;;9.31;100.00;99875.00;5056429;28;20581;-78
2023/01/13 07:15:19;;;;;;;4.10;0.60;;;;;;;9.31;100.00;99845.28;5053804;28;20421;-77
2023/01/13 07:17:46;;;;;;;4.00;0.60;;;;;;;9.34;100.00;99871.69;5055162;28;20439;-76
2023/01/13 07:20:14;;;;;;;4.07;0.50;;;;;;;9.35;100.00;99861.69;5055248;28;20450;-77
2023/01/13 07:22:41;;;;;;;4.10;0.50;;;;;;;9.42;100.00;99874.75;5055075;28;20505;-77
2023/01/13 07:25:09;;;;;;;4.40;0.70;;;;;;;9.42;100.00;99872.03;5054927;28;20529;-78
2023/01/13 07:27:35;;;;;;;3.90;0.50;;;;;;;9.47;100.00;99885.41;5055177;28;20970;-77
2023/01/13 07:30:02;;;;;;;3.93;0.60;;;;;;;9.44;100.00;99876.03;5057803;28;20987;-77
2023/01/13 07:32:31;;;;;;;4.00;0.60;;;;;;;9.45;100.00;99882.22;5057779;28;20478;-77
2023/01/13 07:35:03;;;;;;;4.73;0.73;;;;;;;9.46;100.00;99881.13;5059845;28;20442;-79
2023/01/13 07:37:32;;;;;;;4.00;0.50;;;;;;;9.45;100.00;99876.81;5057292;28;20521;-78
2023/01/13 07:39:59;;;;;;;4.10;0.50;;;;;;;9.51;100.00;99872.88;5061372;28;20511;-78
2023/01/13 07:45:09;;;;;;;3.80;0.50;;;;;;;9.54;100.00;99889.28;5037960;28;20514;-78
2023/01/13 07:47:36;;;;;;;3.90;0.40;;;;;;;9.51;100.00;99887.19;5057715;28;20514;-78
2023/01/13 07:50:03;;;;;;;4.30;0.63;;;;;;;9.47;100.00;99890.81;5056300;28;20489;-79
2023/01/13 07:52:31;;;;;;;4.00;0.60;;;;;;;9.45;100.00;99888.44;5057818;28;20512;-78
2023/01/13 07:54:58;;;;;;;4.40;0.80;;;;;;;9.46;100.00;99895.44;5058142;28;20479;-78
2023/01/13 07:57:24;;;;;;;4.10;0.50;;;;;;;9.50;100.00;99890.22;5059132;28;20442;-78
2023/01/13 07:59:51;;;;;;;3.80;0.47;;;;;;;9.49;100.00;99885.91;5057398;28;20518;-78
2023/01/13 08:02:17;;;;;;;4.23;0.70;;;;;;;9.44;100.00;99913.88;5057781;28;20505;-78
2023/01/13 08:04:44;;;;;;;3.80;0.40;;;;;;;9.46;100.00;99903.53;5058550;28;20525;-78
2023/01/13 08:07:11;;;;;;;4.53;0.63;;;;;;;9.50;100.00;99914.53;5058753;28;20914;-78
2023/01/13 08:09:39;;;;;;;4.53;0.60;;;;;;;9.54;100.00;99919.00;5060141;28;20578;-79
2023/01/13 08:14:56;;;;;;;4.63;0.90;;;;;;;9.64;100.00;99928.75;5021108;28;20448;-78
2023/01/13 08:17:23;;;;;;;4.40;0.70;;;;;;;9.63;100.00;99935.28;5059216;28;20457;-78
2023/01/13 08:19:49;;;;;;;4.00;0.50;;;;;;;9.60;100.00;99935.88;5060999;28;20474;-78
2023/01/13 08:22:16;;;;;;;3.80;0.50;;;;;;;9.62;100.00;99931.00;5059453;28;20524;-78
2023/01/13 08:24:44;;;;;;;4.60;0.53;;;;;;;9.65;100.00;99922.25;5059573;28;20458;-78
2023/01/13 08:27:11;;;;;;;4.03;0.53;;;;;;;9.62;100.00;99920.16;5060780;28;20446;-79
2023/01/13 08:29:37;;;;;;;4.60;0.60;;;;;;;9.70;100.00;99932.16;5062945;28;20573;-79
2023/01/13 08:32:05;;;;;;;4.10;0.57;;;;;;;9.73;100.00;99929.59;5063671;28;20492;-79
2023/01/13 08:34:31;;;;;;;4.30;0.60;;;;;;;9.72;100.00;99943.44;5062546;28;20438;-78
2023/01/13 08:36:58;;;;;;;4.33;0.63;;;;;;;9.66;100.00;99950.09;5064507;28;20477;-79
2023/01/13 08:39:25;;;;;;;4.67;0.60;;;;;;;9.64;100.00;99947.69;5071577;28;20438;-79
2023/01/13 08:41:55;;;;;;;4.00;0.60;;;;;;;9.56;100.00;99911.41;5063464;28;20459;-79
2023/01/13 08:44:22;;;;;;;3.80;0.40;;;;;;;9.57;100.00;99939.22;5061002;28;20435;-79
2023/01/13 08:46:49;;;;;;;3.90;0.50;;;;;;;9.56;100.00;99945.72;5061733;28;20450;-78
2023/01/13 08:49:16;;;;;;;4.10;0.50;;;;;;;9.63;100.00;99956.91;5061319;28;20474;-80
2023/01/13 08:51:43;;;;;;;3.73;0.40;;;;;;;9.66;100.00;99966.31;5065736;28;20450;-79
2023/01/13 08:54:09;;;;;;;3.97;0.60;;;;;;;9.64;100.00;99955.78;5065076;28;20482;-79
2023/01/13 08:56:36;;;;;;;3.90;0.50;;;;;;;9.65;100.00;99954.72;5063859;28;20823;-77
2023/01/13 08:59:04;;;;;;;4.73;0.97;;;;;;;9.66;100.00;99956.31;5065985;28;20504;-79
2023/01/13 09:01:32;;;;;;;4.70;0.57;;;;;;;9.67;100.00;99938.16;5068072;28;20470;-79
2023/01/13 09:03:59;;;;;;;4.20;0.73;;;;;;;9.68;100.00;99916.22;5067480;28;20444;-80
2023/01/13 09:06:26;;;;;;;4.70;1.00;;;;;;;9.62;100.00;99930.19;5067918;28;20457;-79
2023/01/13 09:08:52;;;;;;;4.87;0.50;;;;;;;9.56;100.00;99905.16;5066740;28;20476;-79
2023/01/13 09:14:06;;;;;;;5.10;1.27;;;;;;;9.70;100.00;99902.41;5062424;28;20409;-79
2023/01/13 09:16:33;;;;;;;4.93;0.80;;;;;;;9.70;100.00;99924.03;5060954;28;20533;-79
2023/01/13 09:18:59;;;;;;;4.93;1.07;;;;;;;9.71;100.00;99929.13;5059136;28;20502;-79
2023/01/13 09:21:28;;;;;;;4.07;0.53;;;;;;;9.71;100.00;99931.03;5063287;28;20517;-79
2023/01/13 09:23:55;;;;;;;3.80;0.50;;;;;;;9.71;100.00;99931.81;5061689;28;20470;-79
2023/01/13 09:26:21;;;;;;;4.20;0.67;;;;;;;9.71;100.00;99931.81;5064993;28;20597;-79
2023/01/13 09:28:48;;;;;;;3.90;0.70;;;;;;;9.77;100.00;99946.78;5066902;28;20446;-79
2023/01/13 09:31:16;;;;;;;5.10;0.87;;;;;;;9.74;100.00;99943.91;5068908;28;20497;-79
2023/01/13 09:36:27;;;;;;;4.70;0.90;;;;;;;9.66;99.59;99956.31;5066355;28;20414;-79
2023/01/13 09:38:54;;;;;;;5.20;0.90;;;;;;;9.70;99.84;99954.56;5067795;28;20483;-79
2023/01/13 09:44:11;;;;;;;4.00;0.70;;;;;;;9.59;99.89;99923.47;5063561;28;20776;-79
2023/01/13 09:46:45;;;;;;;5.30;0.90;;;;;;;9.52;99.49;99923.94;5065708;28;20513;-79
2023/01/13 09:49:19;;;;;;;6.83;0.70;;;;;;;9.54;100.00;99929.81;5064767;28;20458;-79
2023/01/13 09:51:52;;;;;;;5.93;0.60;;;;;;;9.57;99.91;99940.03;5063352;28;20470;-79
2023/01/13 09:54:25;;;;;;;7.77;0.77;;;;;;;9.62;99.75;99946.41;5064186;28;20521;-79
2023/01/13 09:56:52;;;;;;;4.97;0.80;;;;;;;9.65;99.95;99949.31;5064297;28;20438;-79
2023/01/13 09:59:19;;;;;;;4.10;0.50;;;;;;;9.67;99.19;99954.38;5064542;28;20457;-79
2023/01/13 10:01:56;;;;;;;4.00;0.60;;;;;;;9.71;99.40;99964.28;5063615;28;20458;-79
2023/01/13 10:04:22;;;;;;;5.60;0.60;;;;;;;9.78;99.41;99956.53;5063232;28;20505;-79
2023/01/13 10:06:55;;;;;;;4.10;0.50;;;;;;;9.80;99.06;99967.81;5065644;28;20525;-82
2023/01/13 10:09:25;;;;;;;3.63;0.40;;;;;;;9.78;99.04;99959.22;5066734;28;20470;-79
2023/01/13 10:14:42;;;;;;;7.30;0.57;;;;;;;9.81;97.56;99960.50;5057207;28;20480;-78
2023/01/13 10:17:18;;;;;;;4.00;0.60;;;;;;;9.86;97.53;99953.03;5057554;28;20448;-79
2023/01/13 10:19:50;;;;;;;4.67;1.13;;;;;;;9.81;97.87;99957.78;5057642;28;20426;-79
2023/01/13 10:22:38;;;;;;;4.73;0.80;;;;;;;9.84;96.51;99952.56;5057348;28;20478;-79
2023/01/13 10:25:31;;;;;;;3.83;0.60;;;;;;;9.83;95.12;99947.47;5057369;28;20492;-79
2023/01/13 10:28:07;;;;;;;4.17;0.60;;;;;;;9.82;95.81;99949.34;5054884;28;20458;-80
2023/01/13 10:30:37;;;;;;;3.80;0.50;;;;;;;9.81;94.76;99950.47;5058689;28;20481;-78
2023/01/13 10:33:12;;;;;;;3.70;0.50;;;;;;;9.76;93.36;99949.81;5059746;28;20542;-78
2023/01/13 10:35:52;;;;;;;5.90;0.67;;;;;;;9.80;93.53;99950.78;5058443;28;20896;-78
2023/01/13 10:38:21;;;;;;;7.73;0.90;;;;;;;9.83;91.68;99950.97;5057390;28;20470;-78
2023/01/13 10:40:49;;;;;;;3.90;0.50;;;;;;;9.88;91.79;99946.53;5057624;28;20517;-78
2023/01/13 10:43:16;;;;;;;4.90;0.60;;;;;;;9.83;91.79;99958.28;5065907;28;20478;-79
2023/01/13 10:45:52;;;;;;;6.43;1.03;;;;;;;9.80;91.44;99953.50;5066925;28;20430;-80
2023/01/13 10:48:23;;;;;;;3.93;0.60;;;;;;;9.82;90.16;99953.97;5066869;28;20453;-79
2023/01/13 10:50:50;;;;;;;5.00;0.57;;;;;;;9.84;90.40;99957.19;5068301;28;20489;-79
2023/01/13 10:53:19;;;;;;;3.90;0.60;;;;;;;9.81;88.80;99958.59;5067174;28;20477;-79
2023/01/13 10:55:59;;;;;;;4.20;0.60;;;;;;;9.90;87.92;99947.81;5068675;28;20939;-79
2023/01/13 10:58:26;;;;;;;3.70;0.67;;;;;;;9.93;88.42;99954.50;5062612;28;20449;-77
2023/01/13 11:01:00;;;;;;;3.90;0.60;;;;;;;9.99;87.64;99948.63;5056125;28;20821;-78
2023/01/13 11:03:46;;;;;;;;;;;;;;;;;;;;;
2023/01/13 11:06:25;;;;;;;4.40;0.80;;;;;;;10.07;88.76;99947.88;5055954;28;20443;-79
2023/01/13 11:09:26;;;;;;;3.90;0.60;;;;;;;10.08;87.13;99940.56;5056479;28;20526;-79
2023/01/13 11:11:55;;;;;;;5.00;0.77;;;;;;;10.10;86.20;99955.38;5056012;28;20556;-78
2023/01/13 11:15:07;;;;;;;4.63;0.60;;;;;;;10.12;87.69;99946.94;5056823;28;20458;-78
2023/01/13 11:17:40;;;;;;;5.10;0.90;;;;;;;10.18;89.56;99955.69;5047016;28;20780;-79
2023/01/13 11:20:29;;;;;;;;;;;;;;;;;;;;;
2023/01/13 11:23:34;;;;;;;;;;;;;;;;;;;;;
2023/01/13 11:26:24;;;;;;;4.00;0.70;;;;;;;10.40;84.78;99963.75;5021135;28;20450;-79
2023/01/13 11:29:03;;;;;;;3.90;0.70;;;;;;;10.46;83.93;99959.81;5056146;28;20442;-78
2023/01/13 11:34:06;;;;;;;4.63;0.87;;;;;;;10.61;85.14;99963.97;5072810;28;20816;-71
2023/01/13 11:36:38;;;;;;;4.10;0.73;;;;;;;10.70;84.27;99967.47;5074396;28;20425;-71
2023/01/13 11:39:16;;;;;;;4.10;0.63;;;;;;;10.79;81.63;99965.56;5074365;28;20430;-72
2023/01/13 11:41:44;;;;;;;4.80;0.77;;;;;;;10.82;80.40;99970.38;5074342;28;20867;-70
2023/01/13 11:44:19;;;;;;;3.80;0.50;;;;;;;10.84;78.96;99962.72;5073858;28;20492;-71
2023/01/13 11:46:48;;;;;;;3.77;0.47;;;;;;;10.90;78.97;99962.56;5074414;28;20421;-71
2023/01/13 11:49:23;;;;;;;4.27;0.60;;;;;;;11.54;77.65;99962.66;5073813;28;20491;-71
2023/01/13 11:51:57;;;;;;;3.87;0.50;;;;;;;12.09;73.09;99961.88;5073874;28;20469;-71
2023/01/13 11:54:49;;;;;;;4.50;0.70;;;;;;;12.94;70.53;99971.75;5073590;28;20502;-72
2023/01/13 11:57:45;;;;;;;4.10;0.50;;;;;;;13.35;63.65;99977.19;5073612;28;20426;-74
2023/01/13 12:00:26;;;;;;;4.00;0.60;;;;;;;13.69;62.49;99972.53;5073492;28;20426;-71
2023/01/13 12:02:58;;;;;;;4.37;0.50;;;;;;;13.85;61.72;99981.63;5073923;28;21022;-72
2023/01/13 12:05:35;;;;;;;4.27;0.63;;;;;;;14.35;61.69;99983.25;5073805;28;20465;-71
2023/01/13 12:08:17;;;;;;;4.20;0.70;;;;;;;15.10;57.15;99991.00;5073857;28;20430;-69
2023/01/13 12:10:57;;;;;;;4.30;0.90;;;;;;;15.01;56.77;99971.25;5073419;28;20469;-69
2023/01/13 12:13:33;;;;;;;5.70;0.73;;;;;;;15.21;54.75;99980.38;5073744;28;20899;-70
2023/01/13 12:16:13;;;;;;;3.90;0.50;;;;;;;15.33;54.65;99985.81;5073710;28;20425;-70
2023/01/13 12:19:08;;;;;;;3.80;0.40;;;;;;;15.22;54.19;99979.25;5073674;28;20516;-72
2023/01/13 12:21:38;;;;;;;4.20;0.60;;;;;;;15.11;52.81;99980.88;5060724;28;20449;-72
2023/01/13 12:24:17;;;;;;;12.60;1.00;;;;;;;15.63;53.29;99990.91;5073695;28;20551;-72
2023/01/13 12:26:49;;;;;;;4.30;0.60;;;;;;;15.89;51.19;99991.25;5073583;28;20453;-72
2023/01/13 12:29:18;;;;;;;4.30;0.80;;;;;;;15.76;50.39;99997.91;5073531;28;20426;-72
2023/01/13 12:31:47;;;;;;;11.63;0.93;;;;;;;15.18;50.87;99975.63;5072920;28;20856;-72
2023/01/13 12:34:27;;;;;;;4.30;0.67;;;;;;;14.45;53.50;99987.47;5073376;28;20472;-73
2023/01/13 12:37:02;;;;;;;7.47;0.73;;;;;;;14.58;54.05;99974.66;5073495;28;20484;-70
2023/01/13 12:39:45;;;;;;;4.00;0.50;;;;;;;14.99;53.46;99989.09;5073036;28;20970;-71